createdAt,value
2023-02-12T00:00:33.331Z,36.97
2023-02-12T00:05:55.293Z,37.26
2023-02-12T00:11:20.438Z,36.88
2023-02-12T00:16:42.108Z,36.92
2023-02-12T00:22:03.852Z,36.88
2023-02-12T00:27:25.944Z,36.87
2023-02-12T00:32:47.653Z,37.08
2023-02-12T00:38:09.440Z,36.96
2023-02-12T00:43:31.260Z,36.81
2023-02-12T00:48:52.966Z,37.15
2023-02-12T00:54:14.821Z,36.87
2023-02-12T00:59:38.017Z,36.79
2023-02-12T01:04:59.825Z,37.22
2023-02-12T01:10:22.235Z,36.87
2023-02-12T01:15:43.959Z,36.80
2023-02-12T01:21:10.919Z,37.08
2023-02-12T01:26:33.409Z,37.16
2023-02-12T01:31:55.316Z,37.04
2023-02-12T01:37:17.263Z,37.21
2023-02-12T01:42:40.640Z,37.12
2023-02-12T01:48:02.590Z,36.81
2023-02-12T01:53:28.561Z,36.76
2023-02-12T01:58:52.795Z,36.92
2023-02-12T02:04:19.966Z,36.92
2023-02-12T02:09:42.395Z,36.78
2023-02-12T02:15:05.265Z,37.31
2023-02-12T02:21:05.020Z,37.24
2023-02-12T02:26:56.933Z,37.07
2023-02-12T02:32:24.595Z,37.19
2023-02-12T02:37:51.959Z,36.97
2023-02-12T02:43:22.660Z,36.85
2023-02-12T02:48:49.461Z,37.04
2023-02-12T02:54:17.970Z,36.70
2023-02-12T02:59:48.659Z,37.17
2023-02-12T03:05:18.098Z,36.81
2023-02-12T03:10:47.208Z,36.95
2023-02-12T03:16:28.709Z,37.20
2023-02-12T03:21:59.678Z,36.84
2023-02-12T03:27:39.070Z,37.20
2023-02-12T03:33:36.105Z,37.15
2023-02-12T03:39:05.665Z,36.72
2023-02-12T03:44:45.426Z,37.06
2023-02-12T03:55:40.352Z,36.97
2023-02-12T04:01:03.569Z,36.95
2023-02-12T04:06:29.044Z,36.91
2023-02-12T04:12:00.197Z,36.87
2023-02-12T04:17:46.891Z,37.16
2023-02-12T04:23:31.741Z,36.83
2023-02-12T04:29:25.858Z,36.74
2023-02-12T04:35:20.903Z,36.74
2023-02-12T04:40:43.611Z,36.70
2023-02-12T04:46:07.688Z,36.99
2023-02-12T04:51:29.491Z,36.65
2023-02-12T04:56:52.103Z,36.69
2023-02-12T05:02:13.836Z,36.93
2023-02-12T05:07:35.546Z,36.79
2023-02-12T05:12:57.266Z,37.10
2023-02-12T05:18:19.061Z,37.05
2023-02-12T05:23:42.151Z,36.95
2023-02-12T05:29:03.986Z,36.68
2023-02-12T05:34:25.705Z,36.95
2023-02-12T05:39:50.446Z,36.76
2023-02-12T05:45:12.119Z,36.84
2023-02-12T05:50:34.273Z,37.12
2023-02-12T05:55:56.293Z,37.12
2023-02-12T06:01:24.259Z,36.97
2023-02-12T06:06:46.205Z,36.79
2023-02-12T06:12:08.011Z,36.57
2023-02-12T06:17:29.800Z,36.55
2023-02-12T06:22:51.504Z,36.94
2023-02-12T06:28:13.278Z,36.82
2023-02-12T06:33:35.893Z,36.78
2023-02-12T06:38:57.992Z,36.95
2023-02-12T06:44:19.788Z,36.49
2023-02-12T06:49:41.522Z,36.44
2023-02-12T06:55:03.361Z,35.57
2023-02-12T07:00:25.345Z,35.08
2023-02-12T07:05:48.519Z,34.40
2023-02-12T07:11:10.753Z,34.06
2023-02-12T07:16:32.592Z,34.08
2023-02-12T07:21:54.356Z,34.07
2023-02-12T07:27:16.120Z,33.96
2023-02-12T07:32:37.860Z,33.55
2023-02-12T07:37:59.719Z,32.96
2023-02-12T07:43:21.381Z,32.95
2023-02-12T07:48:44.125Z,32.82
2023-02-12T07:54:06.486Z,32.28
2023-02-12T07:59:28.761Z,31.95
2023-02-12T08:04:50.513Z,32.11
2023-02-12T08:10:12.418Z,32.41
2023-02-12T08:15:34.063Z,32.56
2023-02-12T08:20:55.746Z,32.72
2023-02-12T08:26:22.105Z,32.98
2023-02-12T08:31:46.519Z,33.40
2023-02-12T08:37:08.345Z,33.64
2023-02-12T08:42:30.023Z,33.99
2023-02-12T08:47:51.766Z,34.01
2023-02-12T08:53:13.707Z,33.91
2023-02-12T08:58:35.968Z,33.92
2023-02-12T09:03:57.944Z,33.97
2023-02-12T09:09:20.361Z,33.99
2023-02-12T09:14:42.360Z,33.50
2023-02-12T09:20:04.201Z,33.84
2023-02-12T09:25:26.666Z,33.52
2023-02-12T09:30:49.182Z,32.80
2023-02-12T09:36:17.014Z,32.75
2023-02-12T09:42:08.090Z,32.75
2023-02-12T09:48:13.118Z,32.46
2023-02-12T09:53:40.265Z,32.34
2023-02-12T09:59:06.487Z,32.35
2023-02-12T10:04:28.956Z,32.16
2023-02-12T10:10:18.745Z,32.22
2023-02-12T10:16:08.301Z,32.46
2023-02-12T10:21:38.817Z,32.35
2023-02-12T10:27:09.694Z,32.28
2023-02-12T10:32:36.224Z,32.08
2023-02-12T10:38:04.705Z,31.58
2023-02-12T10:43:26.456Z,31.55
2023-02-12T10:48:59.011Z,31.04
2023-02-12T10:54:42.468Z,30.80
2023-02-12T11:00:33.638Z,31.25
2023-02-12T11:05:55.770Z,31.02
2023-02-12T11:11:28.366Z,31.11
2023-02-12T11:16:59.078Z,31.45
2023-02-12T11:22:20.843Z,31.28
2023-02-12T11:27:42.623Z,31.50
2023-02-12T11:33:22.730Z,32.41
2023-02-12T11:38:54.762Z,32.65
2023-02-12T11:44:27.339Z,32.88
2023-02-12T11:49:54.760Z,32.82
2023-02-12T11:55:30.986Z,33.04
2023-02-12T12:01:19.346Z,33.38
2023-02-12T12:06:47.111Z,33.25
2023-02-12T12:12:30.202Z,33.59
2023-02-12T12:18:18.412Z,33.81
2023-02-12T12:23:45.408Z,33.76
2023-02-12T12:29:23.405Z,33.65
2023-02-12T12:34:45.239Z,33.43
2023-02-12T12:40:16.094Z,33.22
2023-02-12T12:45:50.454Z,33.35
2023-02-12T12:51:27.636Z,33.39
2023-02-12T12:56:52.120Z,33.54
2023-02-12T13:02:36.694Z,33.43
2023-02-12T13:08:19.325Z,33.85
2023-02-12T13:13:46.381Z,33.77
2023-02-12T13:19:34.377Z,33.70
2023-02-12T13:25:27.653Z,34.55
2023-02-12T13:30:52.464Z,34.79
2023-02-12T13:36:15.268Z,35.20
2023-02-12T13:41:37.361Z,35.49
2023-02-12T13:47:17.555Z,36.49
2023-02-12T13:52:52.340Z,37.09
2023-02-12T13:58:33.157Z,37.03
2023-02-12T14:03:54.978Z,36.63
2023-02-12T14:09:22.184Z,36.79
2023-02-12T14:14:50.227Z,36.90
2023-02-12T14:20:28.456Z,36.81
2023-02-12T14:25:58.184Z,37.13
2023-02-12T14:31:20.246Z,36.97
2023-02-12T14:36:44.182Z,37.59
2023-02-12T14:42:26.205Z,37.81
2023-02-12T14:47:47.959Z,37.56
2023-02-12T14:53:26.050Z,37.50
2023-02-12T14:58:49.646Z,37.66
2023-02-12T15:04:33.597Z,37.66
2023-02-12T15:10:10.235Z,37.35
2023-02-12T15:15:37.562Z,37.65
2023-02-12T15:21:23.161Z,38.05
2023-02-12T15:26:50.375Z,38.44
2023-02-12T15:32:39.001Z,38.14
2023-02-12T15:38:01.956Z,38.32
2023-02-12T15:43:27.720Z,38.48
2023-02-12T15:48:50.002Z,38.33
2023-02-12T15:54:17.999Z,38.74
2023-02-12T15:59:41.561Z,38.68
2023-02-12T16:05:05.915Z,38.80
2023-02-12T16:10:27.995Z,38.82
2023-02-12T16:16:04.912Z,38.47
2023-02-12T16:21:26.817Z,38.86
2023-02-12T16:26:49.305Z,38.54
2023-02-12T16:32:27.219Z,39.14
2023-02-12T16:37:52.469Z,39.31
2023-02-12T16:43:25.179Z,38.79
2023-02-12T16:48:51.854Z,38.56
2023-02-12T16:54:33.469Z,38.22
2023-02-12T16:59:55.384Z,38.29
2023-02-12T17:05:18.552Z,37.83
2023-02-12T17:10:41.054Z,38.77
2023-02-12T17:16:03.262Z,39.06
2023-02-12T17:21:43.354Z,39.46
2023-02-12T17:27:05.311Z,40.05
2023-02-12T17:32:27.048Z,40.11
2023-02-12T17:37:48.741Z,40.27
2023-02-12T17:43:10.599Z,41.18
2023-02-12T17:48:32.299Z,41.12
2023-02-12T17:53:54.097Z,41.49
2023-02-12T17:59:15.814Z,42.08
2023-02-12T18:04:37.692Z,42.10
2023-02-12T18:09:59.672Z,42.25
2023-02-12T18:15:21.681Z,42.07
2023-02-12T18:20:44.036Z,42.04
2023-02-12T18:26:10.980Z,42.17
2023-02-12T18:31:33.211Z,41.83
2023-02-12T18:36:55.142Z,41.87
2023-02-12T18:42:16.877Z,42.03
2023-02-12T18:47:38.654Z,41.86
2023-02-12T18:53:00.467Z,41.63
2023-02-12T18:58:22.467Z,42.92
2023-02-12T19:03:45.747Z,43.09
2023-02-12T19:09:07.994Z,43.15
2023-02-12T19:14:29.729Z,43.06
2023-02-12T19:19:52.041Z,42.72
2023-02-12T19:25:14.024Z,41.90
2023-02-12T19:30:40.755Z,41.56
2023-02-12T19:36:02.765Z,41.30
2023-02-12T19:41:26.149Z,41.42
2023-02-12T19:46:48.798Z,41.14
2023-02-12T19:52:10.612Z,41.29
2023-02-12T19:57:33.546Z,41.58
2023-02-12T20:02:55.751Z,40.69
2023-02-12T20:08:18.263Z,41.00
2023-02-12T20:13:40.319Z,41.27
2023-02-12T20:19:06.003Z,41.64
2023-02-12T20:24:32.841Z,42.04
2023-02-12T20:29:54.782Z,42.35
2023-02-12T20:35:16.996Z,42.90
2023-02-12T20:40:38.754Z,42.91
2023-02-12T20:46:09.237Z,43.21
2023-02-12T20:51:31.476Z,43.04
2023-02-12T20:56:53.179Z,43.54
2023-02-12T21:02:16.078Z,43.46
2023-02-12T21:07:37.896Z,43.46
2023-02-12T21:12:59.594Z,43.88
2023-02-12T21:18:25.711Z,43.87
2023-02-12T21:23:47.783Z,43.77
2023-02-12T21:29:09.740Z,44.57
2023-02-12T21:34:31.468Z,44.45
2023-02-12T21:39:53.197Z,44.36
2023-02-12T21:45:15.038Z,44.02
2023-02-12T21:50:36.808Z,43.76
2023-02-12T21:56:03.374Z,43.48
2023-02-12T22:01:28.041Z,43.13
2023-02-12T22:06:51.496Z,43.41
2023-02-12T22:12:13.194Z,43.07
2023-02-12T22:17:35.179Z,42.99
2023-02-12T22:22:57.028Z,43.20
2023-02-12T22:28:18.825Z,42.89
2023-02-12T22:33:40.966Z,42.93
2023-02-12T22:39:03.543Z,43.08
2023-02-12T22:44:25.242Z,43.17
2023-02-12T22:49:46.910Z,42.81
2023-02-12T22:55:08.653Z,42.73
2023-02-12T23:00:30.784Z,43.17
2023-02-12T23:05:52.503Z,42.72
2023-02-12T23:11:14.177Z,42.89
2023-02-12T23:16:35.990Z,42.80
2023-02-12T23:21:58.083Z,42.99
2023-02-12T23:27:19.824Z,42.68
2023-02-12T23:32:41.632Z,42.82
2023-02-12T23:38:04.574Z,42.97
2023-02-12T23:43:26.266Z,42.94
2023-02-12T23:48:48.005Z,42.39
2023-02-12T23:54:10.245Z,42.58
2023-02-12T23:59:32.103Z,42.96
